LFLB/CMF METAR and TAF weather

Enter ICAO airport designator
Station Type Date Time Source
LFLB METAR 2018/12/11 22:00 UTC NOAA

LFLB 112200Z AUTO VRB02KT CAVOK 02/M01 Q1022 NOSIG


Station Type Date Time Source
LFLB Decoded METAR 2018/12/11 22:00 UTC NOAA

Chambery / Aix-Les-Bains, France (LFLB) 45-39N 005-53E 239M
Dec 11, 2018 - 05:00 PM EST / 2018.12.11 2200 UTC
Wind: Variable at 2 MPH (2 KT):0
Visibility: greater than 7 mile(s):0
Temperature: 35 F (2 C)
Dew Point: 30 F (-1 C)
Relative Humidity: 80%
Pressure (altimeter): 30.18 in. Hg (1022 hPa)
ob: LFLB 112200Z AUTO VRB02KT CAVOK 02/M01 Q1022 NOSIG
cycle: 22

Station Type Date Time Source
LFLB TAF 2018/12/11 22:05 UTC NOAA

TAF LFLB 112200Z 1122/1218 CNL


Example: see airport list